Paragonah, Utah
Current Conditions -  °F | °C
As of 2:53 PM on Sunday 23 Nov 2014 (Local Time) from KCDC Reporting Station
Clear Clear  
Wind Chill: 32°   Ceiling: Unl
Heat Index: 40°   Visibility: 10mi
Dew Point: 10°   Wind: 14mph
Humidity: 29%   Direction: 20°NNE
Pressure: 30.21"   Gusts: 23mph
Location:  37.89°N, 112.78°W
Report Text: KCDC 232153Z AUTO 02012G20KT 10SM CLR 04/M12 A3021 RMK AO2 SLP229 T00441122
Loading
Personal Weather Stations






























Interactive Weather Map New forecast layout! Learn more

10-Day Weather Forecast

Advertisements
Track Severe Weather on mobile